createdAt,value
2022-11-27T00:00:27.414Z,99759.91
2022-11-27T00:01:34.649Z,99749.63
2022-11-27T00:02:40.585Z,99753.06
2022-11-27T00:03:45.330Z,99757.38
2022-11-27T00:04:48.056Z,99749.63
2022-11-27T00:05:56.145Z,99752.22
2022-11-27T00:06:58.814Z,99756.59
2022-11-27T00:08:02.749Z,99747.13
2022-11-27T00:09:07.166Z,99746.22
2022-11-27T00:10:13.197Z,99751.31
2022-11-27T00:11:17.515Z,99747.91
2022-11-27T00:12:21.196Z,99756.47
2022-11-27T00:13:23.962Z,99750.41
2022-11-27T00:14:27.710Z,99754.66
2022-11-27T00:15:30.384Z,99761.56
2022-11-27T00:16:34.481Z,99752.94
2022-11-27T00:17:37.244Z,99755.47
2022-11-27T00:18:41.097Z,99747.66
2022-11-27T00:19:45.006Z,99754.50
2022-11-27T00:20:47.653Z,99755.34
2022-11-27T00:21:51.416Z,99757.03
2022-11-27T00:22:54.135Z,99751.88
2022-11-27T00:23:59.534Z,99761.31
2022-11-27T00:25:02.209Z,99764.78
2022-11-27T00:26:08.537Z,99755.34
2022-11-27T00:27:12.269Z,99763.06
2022-11-27T00:28:14.996Z,99758.81
2022-11-27T00:29:18.734Z,99745.97
2022-11-27T00:30:21.434Z,99758.88
2022-11-27T00:31:29.464Z,99751.16
2022-11-27T00:32:32.231Z,99759.78
2022-11-27T00:33:37.670Z,99756.38
2022-11-27T00:34:40.659Z,99757.22
2022-11-27T00:35:44.602Z,99759.78
2022-11-27T00:36:48.543Z,99758.06
2022-11-27T00:37:51.272Z,99758.06
2022-11-27T00:38:55.030Z,99768.31
2022-11-27T00:39:58.892Z,99758.81
2022-11-27T00:41:07.834Z,99765.66
2022-11-27T00:42:11.604Z,99758.78
2022-11-27T00:43:14.454Z,99757.81
2022-11-27T00:44:18.172Z,99754.41
2022-11-27T00:45:20.843Z,99749.16
2022-11-27T00:46:29.009Z,99757.75
2022-11-27T00:47:33.103Z,99759.41
2022-11-27T00:48:36.228Z,99755.91
2022-11-27T00:49:39.919Z,99756.72
2022-11-27T00:50:42.673Z,99749.81
2022-11-27T00:51:46.372Z,99747.16
2022-11-27T00:52:49.092Z,99754.88
2022-11-27T00:53:53.190Z,99754.88
2022-11-27T00:54:55.884Z,99763.47
2022-11-27T00:55:59.864Z,99748.81
2022-11-27T00:57:05.606Z,99751.41
2022-11-27T00:58:08.351Z,99747.06
2022-11-27T00:59:12.477Z,99746.16
2022-11-27T01:00:16.264Z,99744.47
2022-11-27T01:01:21.989Z,99749.56
2022-11-27T01:02:24.868Z,99743.56
2022-11-27T01:03:29.458Z,99746.13
2022-11-27T01:04:33.255Z,99747.00
2022-11-27T01:05:37.503Z,99747.91
2022-11-27T01:06:41.310Z,99748.81
2022-11-27T01:07:44.010Z,99750.56
2022-11-27T01:08:48.352Z,99745.47
2022-11-27T01:09:50.993Z,99747.25
2022-11-27T01:10:56.525Z,99744.66
2022-11-27T01:12:00.280Z,99757.56
2022-11-27T01:13:04.322Z,99747.25
2022-11-27T01:14:10.472Z,99744.59
2022-11-27T01:15:13.428Z,99751.47
2022-11-27T01:16:19.944Z,99748.88
2022-11-27T01:17:22.642Z,99747.13
2022-11-27T01:18:26.334Z,99747.13
2022-11-27T01:19:29.010Z,99746.22
2022-11-27T01:20:32.714Z,99744.47
2022-11-27T01:21:35.641Z,99746.22
2022-11-27T01:22:39.374Z,99741.06
2022-11-27T01:23:42.062Z,99747.06
2022-11-27T01:24:45.775Z,99741.06
2022-11-27T01:27:00.219Z,99742.88
2022-11-27T01:28:04.624Z,99748.88
2022-11-27T01:29:08.524Z,99741.16
2022-11-27T01:30:12.328Z,99751.50
2022-11-27T01:31:19.150Z,99743.81
2022-11-27T01:32:21.924Z,99755.00
2022-11-27T01:33:25.790Z,99740.34
2022-11-27T01:34:29.452Z,99742.06
2022-11-27T01:35:33.827Z,99744.66
2022-11-27T01:36:37.632Z,99743.81
2022-11-27T01:37:40.343Z,99736.97
2022-11-27T01:38:44.377Z,99750.78
2022-11-27T01:39:47.033Z,99744.78
2022-11-27T01:40:50.905Z,99737.94
2022-11-27T01:41:54.633Z,99741.31
2022-11-27T01:42:57.374Z,99736.97
2022-11-27T01:44:03.913Z,99746.41
2022-11-27T01:45:09.364Z,99743.81
2022-11-27T01:46:19.035Z,99738.66
2022-11-27T01:47:39.595Z,99744.66
2022-11-27T01:48:42.233Z,99747.25
2022-11-27T01:49:48.494Z,99744.66
2022-11-27T01:50:52.673Z,99740.41
2022-11-27T01:51:58.072Z,99742.06
2022-11-27T01:53:04.133Z,99747.31
2022-11-27T01:54:08.162Z,99754.25
2022-11-27T01:55:19.060Z,99739.63
2022-11-27T01:56:22.562Z,99743.09
2022-11-27T01:57:28.897Z,99743.09
2022-11-27T01:58:33.981Z,99747.47
2022-11-27T01:59:38.422Z,99744.97
2022-11-27T02:00:42.784Z,99750.16
2022-11-27T02:01:45.595Z,99745.91
2022-11-27T02:02:49.623Z,99747.66
2022-11-27T02:03:52.869Z,99745.97
2022-11-27T02:04:56.843Z,99745.16
2022-11-27T02:05:59.512Z,99747.72
2022-11-27T02:07:03.275Z,99745.16
2022-11-27T02:08:08.764Z,99743.41
2022-11-27T02:09:12.504Z,99750.31
2022-11-27T02:10:16.324Z,99752.94
2022-11-27T02:11:24.995Z,99753.00
2022-11-27T02:12:30.211Z,99747.06
2022-11-27T02:13:36.254Z,99747.06
2022-11-27T02:14:49.983Z,99752.22
2022-11-27T02:16:00.770Z,99754.81
2022-11-27T02:17:06.642Z,99750.53
2022-11-27T02:18:15.262Z,99746.22
2022-11-27T02:19:28.883Z,99747.91
2022-11-27T02:20:41.334Z,99745.31
2022-11-27T02:21:48.933Z,99748.72
2022-11-27T02:23:04.201Z,99748.72
2022-11-27T02:24:36.928Z,99746.25
2022-11-27T02:25:45.094Z,99739.47
2022-11-27T02:27:49.185Z,99742.97
2022-11-27T02:29:03.165Z,99745.59
2022-11-27T02:30:08.872Z,99743.88
2022-11-27T02:31:14.529Z,99743.75
2022-11-27T02:32:24.073Z,99743.66
2022-11-27T02:33:27.773Z,99741.09
2022-11-27T02:34:36.043Z,99744.47
2022-11-27T02:35:43.994Z,99741.91
2022-11-27T02:36:50.932Z,99741.00
2022-11-27T02:37:59.723Z,99745.25
2022-11-27T02:39:05.474Z,99747.81
2022-11-27T02:40:12.424Z,99752.09
2022-11-27T02:41:19.742Z,99753.00
2022-11-27T02:42:23.794Z,99756.41
2022-11-27T02:43:30.878Z,99753.06
2022-11-27T02:44:37.965Z,99758.28
2022-11-27T02:45:44.354Z,99760.03
2022-11-27T02:46:47.466Z,99756.59
2022-11-27T02:47:52.145Z,99756.59
2022-11-27T02:48:59.053Z,99762.66
2022-11-27T02:50:02.755Z,99766.13
2022-11-27T02:51:07.633Z,99760.13
2022-11-27T02:52:12.866Z,99769.50
2022-11-27T02:53:19.523Z,99765.22
2022-11-27T02:54:25.843Z,99768.66
2022-11-27T02:55:32.797Z,99774.66
2022-11-27T02:56:35.856Z,99768.66
2022-11-27T02:57:40.877Z,99777.22
2022-11-27T02:58:43.545Z,99769.63
2022-11-27T02:59:49.293Z,99774.72
2022-11-27T03:00:52.076Z,99773.03
2022-11-27T03:01:59.010Z,99773.03
2022-11-27T03:03:04.805Z,99775.63
2022-11-27T03:04:11.896Z,99779.09
2022-11-27T03:05:19.125Z,99767.94
2022-11-27T03:06:26.720Z,99773.16
2022-11-27T03:07:33.551Z,99775.72
2022-11-27T03:08:40.277Z,99774.88
2022-11-27T03:09:44.937Z,99778.38
2022-11-27T03:10:53.096Z,99769.78
2022-11-27T03:11:57.209Z,99778.44
2022-11-27T03:13:01.973Z,99774.19
2022-11-27T03:14:07.493Z,99780.19
2022-11-27T03:15:13.194Z,99779.28
2022-11-27T03:16:20.050Z,99778.44
2022-11-27T03:17:37.423Z,99771.53
2022-11-27T03:18:43.174Z,99778.47
2022-11-27T03:19:51.352Z,99775.97
2022-11-27T03:20:59.874Z,99780.28
2022-11-27T03:22:04.601Z,99776.94
2022-11-27T03:23:08.373Z,99775.22
2022-11-27T03:24:12.292Z,99776.94
2022-11-27T03:25:16.899Z,99776.13
2022-11-27T03:26:19.700Z,99780.38
2022-11-27T03:27:26.814Z,99776.97
2022-11-27T03:28:30.005Z,99773.53
2022-11-27T03:29:37.737Z,99766.72
2022-11-27T03:30:42.393Z,99771.88
2022-11-27T03:31:46.295Z,99776.97
2022-11-27T03:32:49.013Z,99775.22
2022-11-27T03:33:53.030Z,99770.97
2022-11-27T03:34:56.099Z,99776.94
2022-11-27T03:35:59.934Z,99775.22
2022-11-27T03:37:02.595Z,99775.22
2022-11-27T03:38:06.335Z,99775.28
2022-11-27T03:39:09.194Z,99765.88
2022-11-27T03:40:13.954Z,99769.34
2022-11-27T03:41:21.234Z,99769.34
2022-11-27T03:42:29.174Z,99766.72
2022-11-27T03:43:36.345Z,99763.22
2022-11-27T03:44:44.492Z,99771.75
2022-11-27T03:45:54.487Z,99761.47
2022-11-27T03:47:04.572Z,99764.06
2022-11-27T03:48:19.075Z,99768.38
2022-11-27T03:49:26.426Z,99765.94
2022-11-27T03:50:37.104Z,99773.59
2022-11-27T03:51:43.899Z,99771.03
2022-11-27T03:52:54.444Z,99762.44
2022-11-27T03:54:01.033Z,99767.53
2022-11-27T03:55:10.656Z,99761.47
2022-11-27T03:56:19.625Z,99763.19
2022-11-27T03:57:26.081Z,99766.59
2022-11-27T03:58:35.515Z,99766.59
2022-11-27T03:59:40.605Z,99760.53
2022-11-27T04:00:45.572Z,99761.38
2022-11-27T04:01:49.830Z,99770.78
2022-11-27T04:02:54.564Z,99775.97
2022-11-27T04:03:57.433Z,99766.47
2022-11-27T04:05:01.291Z,99773.31
2022-11-27T04:06:05.426Z,99770.69
2022-11-27T04:07:08.155Z,99766.38
2022-11-27T04:08:11.843Z,99769.78
2022-11-27T04:09:14.490Z,99770.63
2022-11-27T04:10:18.278Z,99768.03
2022-11-27T04:11:22.023Z,99762.88
2022-11-27T04:12:24.666Z,99767.22
2022-11-27T04:13:28.363Z,99766.38
2022-11-27T04:14:31.034Z,99767.28
2022-11-27T04:15:34.733Z,99764.72
2022-11-27T04:16:37.534Z,99765.63
2022-11-27T04:17:42.746Z,99771.69
2022-11-27T04:18:45.434Z,99778.59
2022-11-27T04:19:49.104Z,99774.34
2022-11-27T04:20:51.775Z,99773.50
2022-11-27T04:21:55.758Z,99774.34
2022-11-27T04:22:58.535Z,99776.13
2022-11-27T04:24:02.262Z,99767.44
2022-11-27T04:25:05.957Z,99772.59
2022-11-27T04:26:09.763Z,99770.06
2022-11-27T04:27:12.554Z,99770.97
2022-11-27T04:28:17.737Z,99771.03
2022-11-27T04:29:20.408Z,99771.97
2022-11-27T04:30:24.373Z,99769.44
2022-11-27T04:31:27.140Z,99769.50
2022-11-27T04:32:31.015Z,99768.75
2022-11-27T04:33:35.158Z,99771.34
2022-11-27T04:34:39.138Z,99775.69
2022-11-27T04:35:42.078Z,99765.34
2022-11-27T04:36:46.416Z,99774.00
2022-11-27T04:37:49.023Z,99759.34
2022-11-27T04:38:52.774Z,99767.16
2022-11-27T04:39:55.414Z,99768.06
2022-11-27T04:40:59.375Z,99760.31
2022-11-27T04:42:02.022Z,99765.53
2022-11-27T04:43:05.764Z,99767.25
2022-11-27T04:44:08.466Z,99769.91
2022-11-27T04:45:12.662Z,99764.81
2022-11-27T04:46:15.370Z,99770.00
2022-11-27T04:47:19.192Z,99772.66
2022-11-27T04:48:21.872Z,99776.97
2022-11-27T04:49:26.991Z,99772.66
2022-11-27T04:50:29.671Z,99770.06
2022-11-27T04:51:33.425Z,99769.16
2022-11-27T04:52:36.138Z,99766.53
2022-11-27T04:53:39.923Z,99771.69
2022-11-27T04:54:42.749Z,99768.22
2022-11-27T04:55:46.613Z,99765.59
2022-11-27T04:56:49.295Z,99767.25
2022-11-27T04:57:53.015Z,99768.09
2022-11-27T04:58:55.759Z,99772.41
2022-11-27T04:59:59.502Z,99769.84
2022-11-27T05:01:02.284Z,99771.59
2022-11-27T05:02:06.290Z,99775.06
2022-11-27T05:03:08.943Z,99771.59
2022-11-27T05:04:12.832Z,99768.16
2022-11-27T05:05:17.564Z,99767.25
2022-11-27T05:06:22.866Z,99769.84
2022-11-27T05:07:25.726Z,99773.25
2022-11-27T05:08:31.095Z,99768.94
2022-11-27T05:09:33.761Z,99771.53
2022-11-27T05:10:37.443Z,99767.25
2022-11-27T05:11:40.211Z,99765.59
2022-11-27T05:12:43.929Z,99772.41
2022-11-27T05:13:46.613Z,99768.16
2022-11-27T05:14:50.314Z,99769.00
2022-11-27T05:15:52.988Z,99770.75
2022-11-27T05:16:58.065Z,99767.25
2022-11-27T05:18:00.754Z,99758.69
2022-11-27T05:19:04.539Z,99758.69
2022-11-27T05:20:09.514Z,99766.41
2022-11-27T05:21:13.530Z,99766.50
2022-11-27T05:22:17.295Z,99765.59
2022-11-27T05:23:19.982Z,99769.06
2022-11-27T05:24:26.638Z,99763.06
2022-11-27T05:25:29.352Z,99763.94
2022-11-27T05:26:33.125Z,99767.41
2022-11-27T05:27:36.925Z,99771.69
2022-11-27T05:28:39.544Z,99765.69
2022-11-27T05:29:43.886Z,99768.31
2022-11-27T05:30:46.744Z,99764.91
2022-11-27T05:31:50.706Z,99765.81
2022-11-27T05:32:54.594Z,99771.88
2022-11-27T05:33:57.336Z,99767.59
2022-11-27T05:35:01.101Z,99765.00
2022-11-27T05:36:03.893Z,99762.44
2022-11-27T05:37:09.452Z,99760.75
2022-11-27T05:38:12.830Z,99760.75
2022-11-27T05:39:16.664Z,99760.75
2022-11-27T05:40:19.563Z,99762.56
2022-11-27T05:41:23.412Z,99760.88
2022-11-27T05:42:26.029Z,99759.16
2022-11-27T05:43:29.824Z,99766.03
2022-11-27T05:44:32.471Z,99768.66
2022-11-27T05:45:36.232Z,99760.13
2022-11-27T05:46:38.908Z,99758.47
2022-11-27T05:47:42.675Z,99767.03
2022-11-27T05:48:45.404Z,99764.50
2022-11-27T05:49:49.144Z,99760.19
2022-11-27T05:50:51.765Z,99762.81
2022-11-27T05:51:55.534Z,99764.56
2022-11-27T05:52:59.687Z,99757.72
2022-11-27T05:54:03.366Z,99761.19
2022-11-27T05:55:07.144Z,99763.81
2022-11-27T05:56:12.634Z,99756.13
2022-11-27T05:57:16.327Z,99753.56
2022-11-27T05:58:19.242Z,99755.31
2022-11-27T05:59:23.056Z,99752.78
2022-11-27T06:00:27.183Z,99753.69
2022-11-27T06:01:30.939Z,99746.81
2022-11-27T06:02:33.816Z,99747.72
2022-11-27T06:03:39.265Z,99748.63
2022-11-27T06:04:43.171Z,99749.47
2022-11-27T06:05:45.992Z,99747.72
2022-11-27T06:06:49.724Z,99751.13
2022-11-27T06:07:52.503Z,99746.88
2022-11-27T06:08:57.841Z,99754.69
2022-11-27T06:10:00.453Z,99756.34
2022-11-27T06:11:08.691Z,99762.41
2022-11-27T06:12:11.350Z,99752.16
2022-11-27T06:13:15.574Z,99755.59
2022-11-27T06:14:18.285Z,99753.84
2022-11-27T06:15:21.985Z,99756.44
2022-11-27T06:16:26.204Z,99750.38
2022-11-27T06:17:29.953Z,99754.69
2022-11-27T06:18:32.725Z,99750.44
2022-11-27T06:19:36.531Z,99749.63
2022-11-27T06:20:43.768Z,99748.78
2022-11-27T06:21:48.473Z,99744.63
2022-11-27T06:22:51.131Z,99745.47
2022-11-27T06:23:57.759Z,99749.78
2022-11-27T06:25:00.414Z,99745.53
2022-11-27T06:26:17.583Z,99744.63
2022-11-27T06:27:20.264Z,99753.19
2022-11-27T06:28:23.982Z,99756.69
2022-11-27T06:29:26.684Z,99753.19
2022-11-27T06:30:30.414Z,99751.50
2022-11-27T06:31:33.617Z,99748.00
2022-11-27T06:32:37.534Z,99755.63
2022-11-27T06:33:40.192Z,99750.44
2022-11-27T06:34:43.905Z,99751.19
2022-11-27T06:35:46.555Z,99750.31
2022-11-27T06:36:50.811Z,99749.41
2022-11-27T06:37:53.535Z,99749.38
2022-11-27T06:38:58.754Z,99748.47
2022-11-27T06:40:01.443Z,99747.56
2022-11-27T06:41:07.315Z,99749.22
2022-11-27T06:42:09.943Z,99746.56
2022-11-27T06:43:13.714Z,99755.13
2022-11-27T06:44:16.414Z,99749.97
2022-11-27T06:45:20.135Z,99747.41
2022-11-27T06:46:23.822Z,99743.91
2022-11-27T06:47:27.533Z,99742.16
2022-11-27T06:48:30.562Z,99753.25
2022-11-27T06:49:34.294Z,99747.97
2022-11-27T06:50:36.924Z,99748.75
2022-11-27T06:51:40.663Z,99746.94
2022-11-27T06:52:43.345Z,99747.75
2022-11-27T06:53:47.081Z,99748.59
2022-11-27T06:54:51.132Z,99740.78
2022-11-27T06:55:54.842Z,99746.75
2022-11-27T06:56:58.672Z,99751.91
2022-11-27T06:58:02.372Z,99745.84
2022-11-27T06:59:06.318Z,99751.00
2022-11-27T07:00:09.985Z,99751.91
2022-11-27T07:01:14.630Z,99746.75
2022-11-27T07:02:17.563Z,99745.88
2022-11-27T07:03:21.387Z,99757.94
2022-11-27T07:04:33.084Z,99751.09
2022-11-27T07:05:40.489Z,99759.69
2022-11-27T07:06:45.181Z,99757.94
2022-11-27T07:07:47.891Z,99763.91
2022-11-27T07:08:51.943Z,99769.00
2022-11-27T07:09:56.134Z,99771.53
2022-11-27T07:11:03.352Z,99770.66
2022-11-27T07:12:06.454Z,99774.09
2022-11-27T07:13:10.175Z,99770.66
2022-11-27T07:14:14.002Z,99767.16
2022-11-27T07:15:16.847Z,99767.94
2022-11-27T07:16:20.631Z,99757.63
2022-11-27T07:17:24.446Z,99759.25
2022-11-27T07:18:27.095Z,99760.88
2022-11-27T07:19:30.815Z,99761.63
2022-11-27T07:20:33.525Z,99758.97
2022-11-27T07:21:38.527Z,99765.63
2022-11-27T07:22:41.264Z,99774.88
2022-11-27T07:23:46.075Z,99773.94
2022-11-27T07:24:48.701Z,99773.81
2022-11-27T07:25:53.867Z,99783.25
2022-11-27T07:26:56.638Z,99782.41
2022-11-27T07:28:00.360Z,99776.34
2022-11-27T07:29:03.194Z,99777.97
2022-11-27T07:30:08.463Z,99777.03
2022-11-27T07:31:11.624Z,99770.88
2022-11-27T07:32:15.503Z,99771.69
2022-11-27T07:33:18.283Z,99777.56
2022-11-27T07:34:22.144Z,99772.28
2022-11-27T07:35:24.804Z,99780.81
2022-11-27T07:36:30.609Z,99778.06
2022-11-27T07:37:33.682Z,99784.84
2022-11-27T07:38:37.453Z,99777.09
2022-11-27T07:40:01.238Z,99782.28
2022-11-27T07:41:06.444Z,99787.47
2022-11-27T07:43:35.214Z,99787.47
2022-11-27T07:44:38.121Z,99785.72
2022-11-27T07:45:42.060Z,99785.63
2022-11-27T07:46:45.791Z,99785.53
2022-11-27T07:47:48.503Z,99780.22
2022-11-27T07:48:52.559Z,99771.53
2022-11-27T07:49:55.758Z,99769.66
2022-11-27T07:50:59.789Z,99768.69
2022-11-27T07:52:03.435Z,99765.97
2022-11-27T07:53:06.096Z,99769.28
2022-11-27T07:54:09.783Z,99771.75
2022-11-27T07:55:12.454Z,99771.59
2022-11-27T07:56:18.032Z,99778.34
2022-11-27T07:57:20.653Z,99777.53
2022-11-27T07:58:24.343Z,99770.59
2022-11-27T07:59:27.160Z,99775.69
2022-11-27T08:00:30.926Z,99779.13
2022-11-27T08:01:34.764Z,99779.94
2022-11-27T08:02:37.426Z,99781.59
2022-11-27T08:03:41.117Z,99774.69
2022-11-27T08:04:44.174Z,99773.78
2022-11-27T08:05:48.184Z,99768.59
2022-11-27T08:06:51.873Z,99778.91
2022-11-27T08:07:54.673Z,99776.25
2022-11-27T08:08:58.994Z,99761.59
2022-11-27T08:10:01.691Z,99774.50
2022-11-27T08:11:05.379Z,99775.41
2022-11-27T08:12:10.544Z,99775.41
2022-11-27T08:13:13.339Z,99773.66
2022-11-27T08:14:19.372Z,99771.91
2022-11-27T08:15:22.024Z,99772.75
2022-11-27T08:16:25.870Z,99782.19
2022-11-27T08:17:28.765Z,99779.56
2022-11-27T08:18:32.423Z,99782.91
2022-11-27T08:19:36.262Z,99776.00
2022-11-27T08:20:39.055Z,99770.75
2022-11-27T08:21:42.792Z,99770.72
2022-11-27T08:22:45.445Z,99763.81
2022-11-27T08:23:49.344Z,99770.66
2022-11-27T08:24:53.069Z,99768.97
2022-11-27T08:25:55.750Z,99769.88
2022-11-27T08:26:59.525Z,99772.47
2022-11-27T08:28:03.672Z,99774.97
2022-11-27T08:29:07.667Z,99774.00
2022-11-27T08:30:10.902Z,99780.72
2022-11-27T08:31:15.814Z,99779.78
2022-11-27T08:32:19.546Z,99776.22
2022-11-27T08:33:22.214Z,99781.25
2022-11-27T08:34:27.033Z,99782.94
2022-11-27T08:35:30.865Z,99782.84
2022-11-27T08:36:34.909Z,99786.19
2022-11-27T08:37:37.659Z,99782.69
2022-11-27T08:38:41.879Z,99782.59
2022-11-27T08:39:45.615Z,99784.25
2022-11-27T08:40:54.726Z,99779.78
2022-11-27T08:41:58.624Z,99785.81
2022-11-27T08:43:01.298Z,99779.72
2022-11-27T08:44:09.265Z,99783.22
2022-11-27T08:45:12.287Z,99785.81
2022-11-27T08:46:16.067Z,99779.72
2022-11-27T08:47:18.762Z,99779.66
2022-11-27T08:48:23.033Z,99785.53
2022-11-27T08:49:26.753Z,99789.72
2022-11-27T08:50:29.440Z,99793.94
2022-11-27T08:51:33.115Z,99787.78
2022-11-27T08:52:36.093Z,99791.25
2022-11-27T08:53:40.265Z,99794.72
2022-11-27T08:54:43.288Z,99793.94
2022-11-27T08:55:47.423Z,99796.47
2022-11-27T08:56:53.175Z,99798.13
2022-11-27T08:57:56.093Z,99788.66
2022-11-27T08:59:00.012Z,99791.09
2022-11-27T09:00:05.636Z,99784.91
2022-11-27T09:01:12.711Z,99787.41
2022-11-27T09:02:16.592Z,99787.34
2022-11-27T09:03:19.225Z,99794.25
2022-11-27T09:04:22.979Z,99789.91
2022-11-27T09:05:25.793Z,99787.41
2022-11-27T09:06:31.013Z,99788.25
2022-11-27T09:07:33.725Z,99791.66
2022-11-27T09:08:37.503Z,99789.88
2022-11-27T09:09:41.517Z,99791.47
2022-11-27T09:10:44.171Z,99797.38
2022-11-27T09:11:48.592Z,99788.69
2022-11-27T09:12:51.406Z,99790.25
2022-11-27T09:13:55.282Z,99790.06
2022-11-27T09:14:58.042Z,99785.59
2022-11-27T09:16:03.162Z,99797.47
2022-11-27T09:17:05.902Z,99785.25
2022-11-27T09:18:09.682Z,99789.50
2022-11-27T09:19:12.279Z,99786.84
2022-11-27T09:20:16.270Z,99791.97
2022-11-27T09:21:22.077Z,99788.47
2022-11-27T09:22:24.804Z,99787.63
2022-11-27T09:23:28.664Z,99785.03
2022-11-27T09:24:32.383Z,99781.47
2022-11-27T09:25:35.124Z,99782.19
2022-11-27T09:26:38.885Z,99776.03
2022-11-27T09:27:41.555Z,99775.13
2022-11-27T09:28:45.923Z,99779.38
2022-11-27T09:29:49.814Z,99780.94
2022-11-27T09:30:55.368Z,99783.38
2022-11-27T09:32:00.642Z,99785.84
2022-11-27T09:33:03.755Z,99774.44
2022-11-27T09:34:07.634Z,99779.47
2022-11-27T09:35:10.371Z,99785.47
2022-11-27T09:36:15.956Z,99775.91
2022-11-27T09:37:19.726Z,99781.81
2022-11-27T09:38:23.830Z,99782.56
2022-11-27T09:39:30.684Z,99769.41
2022-11-27T09:40:34.368Z,99773.59
2022-11-27T09:41:42.422Z,99773.53
2022-11-27T09:42:50.844Z,99771.00
2022-11-27T09:43:57.057Z,99766.66
2022-11-27T09:45:01.035Z,99764.84
2022-11-27T09:46:08.493Z,99772.41
2022-11-27T09:47:18.016Z,99768.06
2022-11-27T09:48:23.781Z,99766.22
2022-11-27T09:49:30.494Z,99770.44
2022-11-27T09:50:43.017Z,99772.03
2022-11-27T09:51:57.529Z,99769.38
2022-11-27T09:53:07.790Z,99765.81
2022-11-27T09:54:17.544Z,99770.88
2022-11-27T09:55:25.913Z,99760.41
2022-11-27T09:56:30.424Z,99768.09
2022-11-27T09:57:38.843Z,99759.38
2022-11-27T09:58:42.799Z,99761.78
2022-11-27T09:59:50.772Z,99760.88
2022-11-27T10:00:53.523Z,99766.06
2022-11-27T10:01:58.750Z,99755.84
2022-11-27T10:03:05.054Z,99755.06
2022-11-27T10:04:10.434Z,99761.03
2022-11-27T10:05:19.267Z,99760.97
2022-11-27T10:06:28.334Z,99758.38
2022-11-27T10:07:39.198Z,99759.13
2022-11-27T10:08:47.859Z,99756.41
2022-11-27T10:10:10.535Z,99765.00
2022-11-27T10:11:21.601Z,99760.75
2022-11-27T10:12:31.024Z,99764.09
2022-11-27T10:13:52.094Z,99758.16
2022-11-27T10:15:04.210Z,99753.09
2022-11-27T10:16:13.854Z,99756.59
2022-11-27T10:17:20.653Z,99746.31
2022-11-27T10:18:31.884Z,99747.28
2022-11-27T10:19:44.329Z,99746.63
2022-11-27T10:20:50.422Z,99745.00
2022-11-27T10:21:56.959Z,99749.44
2022-11-27T10:23:04.646Z,99746.00
2022-11-27T10:24:15.051Z,99740.81
2022-11-27T10:25:21.106Z,99738.91
2022-11-27T10:26:29.942Z,99740.59
2022-11-27T10:27:38.985Z,99732.75
2022-11-27T10:28:47.465Z,99736.19
2022-11-27T10:29:54.164Z,99731.84
2022-11-27T10:31:02.412Z,99735.13
2022-11-27T10:32:26.690Z,99738.63
2022-11-27T10:33:44.381Z,99732.66
2022-11-27T10:34:50.484Z,99735.25
2022-11-27T10:35:53.474Z,99725.81
2022-11-27T10:36:58.151Z,99734.41
2022-11-27T10:38:07.241Z,99725.72
2022-11-27T10:39:15.513Z,99729.94
2022-11-27T10:40:22.892Z,99722.84
2022-11-27T10:43:01.423Z,99724.16
2022-11-27T10:44:19.012Z,99725.91
2022-11-27T10:45:25.470Z,99727.53
2022-11-27T10:46:31.162Z,99727.38
2022-11-27T10:47:35.094Z,99723.72
2022-11-27T10:48:39.274Z,99726.31
2022-11-27T10:49:44.195Z,99725.38
2022-11-27T10:50:49.113Z,99721.00
2022-11-27T10:51:52.815Z,99713.88
2022-11-27T10:52:59.595Z,99716.34
2022-11-27T10:54:03.053Z,99719.78
2022-11-27T10:55:19.163Z,99714.47
2022-11-27T10:56:42.973Z,99712.72
2022-11-27T10:57:55.203Z,99711.78
2022-11-27T10:59:00.690Z,99717.59
2022-11-27T11:00:10.722Z,99719.03
2022-11-27T11:01:16.153Z,99709.34
2022-11-27T11:02:31.086Z,99716.88
2022-11-27T11:03:35.895Z,99713.41
2022-11-27T11:04:41.133Z,99709.88
2022-11-27T11:06:19.390Z,99712.38
2022-11-27T11:07:26.715Z,99714.88
2022-11-27T11:08:30.264Z,99709.69
2022-11-27T11:09:36.293Z,99705.28
2022-11-27T11:10:44.123Z,99705.06
2022-11-27T11:11:47.955Z,99708.41
2022-11-27T11:12:50.712Z,99707.44
2022-11-27T11:13:55.559Z,99710.78
2022-11-27T11:15:01.903Z,99714.88
2022-11-27T11:16:10.926Z,99704.41
2022-11-27T11:17:18.754Z,99697.56
2022-11-27T11:18:22.631Z,99704.50
2022-11-27T11:19:36.711Z,99706.19
2022-11-27T11:20:49.624Z,99704.19
2022-11-27T11:21:53.852Z,99704.03
2022-11-27T11:22:56.594Z,99705.63
2022-11-27T11:24:03.503Z,99705.63
2022-11-27T11:25:06.593Z,99701.44
2022-11-27T11:26:27.493Z,99702.34
2022-11-27T11:27:32.741Z,99701.44
2022-11-27T11:28:42.503Z,99703.97
2022-11-27T11:29:50.423Z,99702.19
2022-11-27T11:31:03.991Z,99693.56
2022-11-27T11:32:12.835Z,99702.19
2022-11-27T11:33:15.798Z,99694.25
2022-11-27T11:34:23.071Z,99694.19
2022-11-27T11:35:28.985Z,99698.53
2022-11-27T11:36:34.242Z,99689.13
2022-11-27T11:37:39.764Z,99687.47
2022-11-27T11:38:45.817Z,99696.25
2022-11-27T11:39:56.031Z,99692.88
2022-11-27T11:41:02.833Z,99693.72
2022-11-27T11:42:11.743Z,99691.22
2022-11-27T11:43:25.566Z,99688.53
2022-11-27T11:44:34.247Z,99679.75
2022-11-27T11:45:45.454Z,99683.00
2022-11-27T11:46:54.014Z,99687.13
2022-11-27T11:47:59.135Z,99680.13
2022-11-27T11:49:06.412Z,99678.38
2022-11-27T11:50:14.353Z,99673.81
2022-11-27T11:51:20.558Z,99679.63
2022-11-27T11:52:47.102Z,99675.19
2022-11-27T11:53:57.395Z,99672.84
2022-11-27T11:55:05.926Z,99679.03
2022-11-27T11:56:23.834Z,99668.03
2022-11-27T11:58:02.835Z,99671.66
2022-11-27T11:59:16.316Z,99671.97
2022-11-27T12:00:28.283Z,99666.84
2022-11-27T12:01:48.033Z,99660.75
2022-11-27T12:03:16.522Z,99665.19
2022-11-27T12:05:03.687Z,99662.59
2022-11-27T12:06:25.764Z,99657.41
2022-11-27T12:07:38.928Z,99658.22
2022-11-27T12:08:52.890Z,99646.19
2022-11-27T12:10:00.145Z,99645.59
2022-11-27T12:11:10.301Z,99649.25
2022-11-27T12:12:21.671Z,99644.34
2022-11-27T12:13:39.015Z,99640.97
2022-11-27T12:14:45.571Z,99638.59
2022-11-27T12:15:55.439Z,99641.38
2022-11-27T12:17:07.386Z,99639.75
2022-11-27T12:18:15.094Z,99637.06
2022-11-27T12:19:48.501Z,99642.34
2022-11-27T12:21:00.793Z,99651.91
2022-11-27T12:22:13.173Z,99638.94
2022-11-27T12:23:46.445Z,99645.88
2022-11-27T12:24:57.096Z,99645.97
2022-11-27T12:26:06.826Z,99645.97
2022-11-27T12:27:19.475Z,99641.53
2022-11-27T12:28:33.054Z,99636.34
2022-11-27T12:29:54.929Z,99633.75
2022-11-27T12:31:03.162Z,99633.75
2022-11-27T12:32:39.335Z,99630.22
2022-11-27T12:33:56.202Z,99634.75
2022-11-27T12:35:08.463Z,99639.25
2022-11-27T12:36:24.610Z,99636.81
2022-11-27T12:37:40.873Z,99638.56
2022-11-27T12:38:56.131Z,99638.56
2022-11-27T12:40:10.784Z,99636.81
2022-11-27T12:41:23.892Z,99635.97
2022-11-27T12:42:31.037Z,99637.63
2022-11-27T12:43:38.658Z,99634.22
2022-11-27T12:44:53.337Z,99637.72
2022-11-27T12:46:02.093Z,99634.38
2022-11-27T12:47:09.971Z,99634.38
2022-11-27T12:48:16.640Z,99635.22
2022-11-27T12:49:25.051Z,99632.69
2022-11-27T12:50:36.823Z,99629.34
2022-11-27T12:51:44.758Z,99634.53
2022-11-27T12:52:54.409Z,99625.91
2022-11-27T12:54:02.870Z,99626.00
2022-11-27T12:55:12.486Z,99624.28
2022-11-27T12:56:21.181Z,99624.28
2022-11-27T12:57:32.156Z,99625.16
2022-11-27T12:58:39.644Z,99629.34
2022-11-27T12:59:45.618Z,99619.72